William R Fairchild International Airport Port Angeles US
ICAO: KCLM
IATA: CLM
Category: Medium
Scheduled Services: Yes

Elevation: 291 ft
TransAlt. 18000 ft.

Airport Communications:
WHIDBEY APP/DEP:118.2
ASOS:135.175
CLNC DEL:124.15
SEATTLE RDO:122.6
CTAF/UNICOM:123

KCLM Zoom In..

If you have problems with the map follow the link
https://www.worldairports.se/pages/airport.php?
ICAO=KCLM

Runways:

(A) RW 08 length 6347 ft width 150 ft
ILS 108.90 / hdg 83

(B) RW 13 length 3245 ft width 50 ft
---- / hdg 126

(C) RW 26 length 6347 ft width 150 ft
---- / hdg 263

(D) RW 31 length 3245 ft width 50 ft
---- / hdg 306

Location; KCLM
Day. 19 / Time. 01.53 Zulu
* Altimeter: 30.15
* Temperature: 03° c. 37.4°f.
* Wind from: 190° Speed 04 kn.
Dewpoint: 02° c.
Visibility: 10 Statute Miles.
Clouds: Overcast 6000 ft.

KCLM 190153Z AUTO 19004KT 10SM OVC060 03/02 A3015 RMK AO2 SLP212 T00280017


Wind From 190°
Speed 04 kn.

 
 
jpsmedia worldairports.se 2020   terms of use